createdAt,value
2018-03-27T00:01:18.313Z,7.70
2018-03-27T00:03:45.806Z,7.70
2018-03-27T00:06:13.314Z,7.70
2018-03-27T00:08:40.793Z,7.60
2018-03-27T00:11:09.168Z,7.50
2018-03-27T00:13:37.413Z,7.60
2018-03-27T00:16:04.914Z,7.50
2018-03-27T00:18:33.159Z,7.50
2018-03-27T00:21:00.658Z,7.50
2018-03-27T00:23:28.146Z,7.50
2018-03-27T00:25:55.647Z,7.40
2018-03-27T00:28:37.194Z,7.30
2018-03-27T00:31:16.642Z,7.40
2018-03-27T00:33:55.996Z,7.50
2018-03-27T00:36:35.665Z,7.50
2018-03-27T00:39:15.822Z,7.50
2018-03-27T00:44:38.897Z,7.50
2018-03-27T00:47:07.151Z,7.40
2018-03-27T00:49:34.641Z,7.40
2018-03-27T00:52:02.160Z,7.40
2018-03-27T00:54:29.734Z,7.30
2018-03-27T00:56:58.029Z,7.30
2018-03-27T00:59:26.313Z,7.20
2018-03-27T01:01:54.195Z,7.20
2018-03-27T01:04:21.739Z,7.20
2018-03-27T01:06:49.997Z,7.00
2018-03-27T01:09:18.265Z,7.10
2018-03-27T01:11:45.849Z,7.10
2018-03-27T01:14:13.386Z,7.00
2018-03-27T01:16:41.675Z,7.00
2018-03-27T01:19:09.953Z,6.90
2018-03-27T01:21:38.323Z,6.90
2018-03-27T01:24:06.602Z,6.70
2018-03-27T01:26:34.870Z,6.60
2018-03-27T01:29:03.142Z,6.60
2018-03-27T01:31:30.643Z,6.60
2018-03-27T01:33:58.144Z,6.60
2018-03-27T01:36:25.679Z,6.60
2018-03-27T01:38:53.218Z,6.70
2018-03-27T01:41:20.694Z,6.70
2018-03-27T01:43:48.177Z,6.70
2018-03-27T01:46:15.691Z,6.70
2018-03-27T01:48:43.170Z,6.60
2018-03-27T01:51:10.672Z,6.50
2018-03-27T01:53:38.938Z,6.50
2018-03-27T01:56:06.577Z,6.50
2018-03-27T01:58:34.065Z,6.50
2018-03-27T02:01:01.728Z,6.40
2018-03-27T02:03:30.025Z,6.20
2018-03-27T02:05:57.678Z,6.10
2018-03-27T02:08:25.932Z,6.10
2018-03-27T02:10:53.733Z,6.00
2018-03-27T02:13:26.965Z,6.00
2018-03-27T02:16:00.204Z,6.00
2018-03-27T02:18:34.301Z,5.90
2018-03-27T02:21:08.161Z,5.80
2018-03-27T02:23:35.638Z,5.80
2018-03-27T02:26:03.142Z,5.70
2018-03-27T02:28:31.397Z,5.60
2018-03-27T02:31:00.055Z,5.60
2018-03-27T02:33:27.662Z,5.70
2018-03-27T02:35:55.918Z,5.50
2018-03-27T02:38:23.418Z,5.50
2018-03-27T02:40:50.943Z,5.50
2018-03-27T02:43:19.215Z,5.30
2018-03-27T02:45:47.475Z,5.20
2018-03-27T02:48:14.974Z,5.20
2018-03-27T02:50:42.468Z,5.20
2018-03-27T02:53:09.969Z,5.20
2018-03-27T02:55:38.219Z,5.30
2018-03-27T02:58:05.719Z,5.20
2018-03-27T03:00:33.264Z,5.30
2018-03-27T03:03:01.550Z,5.30
2018-03-27T03:05:29.790Z,5.30
2018-03-27T03:07:57.289Z,5.30
2018-03-27T03:10:24.768Z,5.20
2018-03-27T03:12:52.258Z,5.00
2018-03-27T03:15:19.758Z,4.90
2018-03-27T03:17:48.033Z,4.70
2018-03-27T03:20:16.297Z,4.60
2018-03-27T03:22:43.863Z,4.60
2018-03-27T03:25:12.148Z,4.50
2018-03-27T03:27:39.703Z,4.50
2018-03-27T03:30:07.970Z,4.30
2018-03-27T03:32:36.263Z,4.20
2018-03-27T03:35:04.529Z,4.00
2018-03-27T03:37:32.803Z,4.00
2018-03-27T03:40:01.067Z,4.00
2018-03-27T03:42:28.558Z,4.00
2018-03-27T03:44:56.070Z,4.00
2018-03-27T03:47:23.576Z,4.00
2018-03-27T03:49:51.082Z,3.90
2018-03-27T03:52:18.570Z,3.80
2018-03-27T03:54:46.834Z,3.60
2018-03-27T03:57:15.114Z,3.60
2018-03-27T03:59:43.405Z,3.60
2018-03-27T04:02:11.666Z,3.50
2018-03-27T04:04:39.937Z,3.60
2018-03-27T04:07:07.516Z,3.60
2018-03-27T04:09:35.871Z,3.60
2018-03-27T04:12:03.404Z,3.60
2018-03-27T04:14:30.864Z,3.50
2018-03-27T04:16:58.397Z,3.50
2018-03-27T04:19:25.863Z,3.60
2018-03-27T04:21:53.350Z,3.70
2018-03-27T04:24:20.842Z,3.60
2018-03-27T04:26:49.110Z,3.60
2018-03-27T04:29:17.391Z,3.60
2018-03-27T04:31:45.661Z,3.60
2018-03-27T04:34:13.911Z,3.60
2018-03-27T04:36:41.494Z,3.60
2018-03-27T04:39:09.786Z,3.50
2018-03-27T04:41:38.054Z,3.50
2018-03-27T04:44:06.299Z,3.50
2018-03-27T04:46:33.807Z,3.50
2018-03-27T04:49:01.295Z,3.40
2018-03-27T04:51:28.804Z,3.40
2018-03-27T04:53:57.092Z,3.20
2018-03-27T04:56:24.633Z,3.20
2018-03-27T04:58:52.897Z,3.00
2018-03-27T05:01:20.381Z,2.90
2018-03-27T05:03:48.895Z,2.80
2018-03-27T05:06:16.394Z,2.80
2018-03-27T05:08:43.966Z,2.90
2018-03-27T05:11:12.250Z,2.80
2018-03-27T05:13:40.518Z,2.80
2018-03-27T05:16:08.801Z,2.80
2018-03-27T05:18:37.064Z,2.70
2018-03-27T05:21:05.346Z,2.70
2018-03-27T05:23:33.622Z,2.60
2018-03-27T05:26:01.902Z,2.60
2018-03-27T05:28:30.181Z,2.50
2018-03-27T05:30:58.474Z,2.50
2018-03-27T05:33:25.963Z,2.50
2018-03-27T05:35:53.479Z,2.70
2018-03-27T05:38:21.766Z,3.00
2018-03-27T05:40:49.279Z,2.90
2018-03-27T05:43:16.807Z,3.10
2018-03-27T05:45:44.307Z,3.20
2018-03-27T05:48:11.887Z,3.30
2018-03-27T05:50:40.297Z,3.50
2018-03-27T05:53:07.766Z,3.50
2018-03-27T05:55:35.281Z,3.60
2018-03-27T05:58:03.621Z,3.80
2018-03-27T06:00:31.131Z,3.80
2018-03-27T06:02:58.622Z,4.00
2018-03-27T06:05:26.122Z,4.10
2018-03-27T06:07:53.708Z,4.20
2018-03-27T06:10:22.109Z,4.40
2018-03-27T06:12:49.629Z,4.40
2018-03-27T06:15:17.914Z,4.90
2018-03-27T06:17:45.410Z,4.80
2018-03-27T06:20:12.897Z,5.20
2018-03-27T06:22:40.398Z,5.40
2018-03-27T06:25:07.937Z,5.50
2018-03-27T06:27:36.336Z,5.80
2018-03-27T06:30:04.587Z,6.00
2018-03-27T06:32:32.854Z,6.10
2018-03-27T06:35:00.392Z,6.10
2018-03-27T06:37:27.998Z,6.00
2018-03-27T06:39:56.272Z,6.20
2018-03-27T06:42:24.580Z,6.40
2018-03-27T06:44:52.098Z,6.40
2018-03-27T06:47:20.366Z,6.40
2018-03-27T06:49:48.631Z,6.80
2018-03-27T06:52:16.218Z,6.80
2018-03-27T06:54:44.471Z,7.50
2018-03-27T06:57:12.067Z,7.50
2018-03-27T06:59:39.540Z,7.50
2018-03-27T07:02:07.026Z,7.60
2018-03-27T07:04:34.522Z,7.80
2018-03-27T07:07:02.830Z,8.20
2018-03-27T07:09:31.108Z,8.90
2018-03-27T07:11:58.622Z,8.90
2018-03-27T07:14:26.943Z,9.10
2018-03-27T07:16:55.180Z,9.20
2018-03-27T07:19:22.783Z,9.10
2018-03-27T07:21:51.038Z,9.40
2018-03-27T07:24:19.289Z,9.40
2018-03-27T07:26:46.783Z,9.40
2018-03-27T07:29:14.275Z,9.60
2018-03-27T07:31:41.776Z,10.10
2018-03-27T07:34:10.065Z,10.40
2018-03-27T07:36:37.571Z,10.40
2018-03-27T07:39:05.841Z,9.60
2018-03-27T07:41:33.354Z,9.10
2018-03-27T07:44:00.855Z,8.70
2018-03-27T07:46:28.357Z,9.50
2018-03-27T07:48:56.637Z,9.50
2018-03-27T07:51:24.904Z,9.10
2018-03-27T07:53:53.191Z,8.70
2018-03-27T07:56:21.455Z,8.40
2018-03-27T07:58:49.743Z,8.00
2018-03-27T08:01:18.034Z,7.40
2018-03-27T08:03:45.546Z,7.40
2018-03-27T08:06:13.854Z,7.60
2018-03-27T08:08:42.526Z,7.90
2018-03-27T08:11:11.069Z,8.10
2018-03-27T08:13:39.075Z,8.10
2018-03-27T08:16:07.455Z,8.20
2018-03-27T08:18:35.862Z,8.30
2018-03-27T08:21:03.369Z,8.20
2018-03-27T08:23:30.861Z,8.00
2018-03-27T08:25:59.246Z,7.70
2018-03-27T08:28:27.492Z,7.50
2018-03-27T08:30:54.987Z,7.50
2018-03-27T08:33:22.530Z,7.30
2018-03-27T08:35:50.794Z,7.30
2018-03-27T08:38:21.659Z,7.30
2018-03-27T08:40:49.902Z,7.60
2018-03-27T08:43:17.480Z,7.60
2018-03-27T08:45:45.731Z,7.80
2018-03-27T08:48:14.730Z,7.80
2018-03-27T08:50:42.236Z,7.80
2018-03-27T08:53:09.740Z,8.00
2018-03-27T08:55:37.178Z,8.10
2018-03-27T08:58:04.773Z,8.20
2018-03-27T09:00:33.043Z,8.40
2018-03-27T09:03:00.531Z,8.40
2018-03-27T09:05:28.067Z,8.50
2018-03-27T09:07:56.350Z,8.30
2018-03-27T09:10:24.627Z,8.60
2018-03-27T09:12:52.871Z,8.80
2018-03-27T09:15:20.409Z,8.80
2018-03-27T09:17:47.911Z,9.10
2018-03-27T09:20:16.322Z,9.00
2018-03-27T09:22:43.820Z,9.00
2018-03-27T09:25:11.321Z,9.30
2018-03-27T09:27:38.867Z,9.40
2018-03-27T09:30:07.150Z,9.00
2018-03-27T09:32:35.449Z,8.80
2018-03-27T09:35:02.980Z,8.80
2018-03-27T09:37:31.238Z,9.00
2018-03-27T09:39:58.733Z,9.00
2018-03-27T09:42:26.247Z,9.30
2018-03-27T09:44:53.755Z,9.40
2018-03-27T09:47:21.236Z,9.20
2018-03-27T09:49:48.857Z,9.00
2018-03-27T09:52:17.122Z,8.90
2018-03-27T09:54:45.407Z,8.80
2018-03-27T09:57:14.553Z,8.90
2018-03-27T09:59:42.052Z,8.80
2018-03-27T10:02:09.627Z,8.80
2018-03-27T10:04:37.132Z,8.90
2018-03-27T10:07:04.651Z,8.90
2018-03-27T10:09:32.202Z,9.00
2018-03-27T10:12:00.501Z,9.40
2018-03-27T10:14:27.987Z,9.40
2018-03-27T10:16:55.590Z,9.60
2018-03-27T10:19:23.855Z,9.80
2018-03-27T10:21:52.242Z,9.50
2018-03-27T10:24:20.528Z,9.50
2018-03-27T10:26:48.791Z,9.40
2018-03-27T10:29:17.094Z,9.40
2018-03-27T10:31:44.626Z,9.40
2018-03-27T10:34:12.923Z,9.80
2018-03-27T10:36:40.414Z,9.70
2018-03-27T10:39:08.536Z,9.90
2018-03-27T10:41:36.938Z,9.70
2018-03-27T10:44:04.479Z,9.70
2018-03-27T10:46:32.854Z,9.70
2018-03-27T10:49:01.132Z,9.80
2018-03-27T10:51:29.410Z,10.00
2018-03-27T10:53:57.682Z,10.30
2018-03-27T10:56:25.934Z,10.60
2018-03-27T10:58:53.455Z,10.60
2018-03-27T11:01:20.967Z,10.80
2018-03-27T11:03:49.382Z,10.70
2018-03-27T11:06:16.856Z,10.70
2018-03-27T11:08:44.465Z,10.70
2018-03-27T11:11:16.238Z,11.40
2018-03-27T11:13:44.489Z,11.80
2018-03-27T11:16:12.270Z,11.80
2018-03-27T11:18:40.543Z,11.70
2018-03-27T11:21:08.859Z,11.60
2018-03-27T11:23:36.366Z,11.60
2018-03-27T11:26:03.937Z,11.60
2018-03-27T11:28:32.215Z,11.90
2018-03-27T11:31:00.497Z,11.60
2018-03-27T11:33:28.763Z,11.30
2018-03-27T11:35:57.042Z,11.10
2018-03-27T11:38:25.305Z,11.00
2018-03-27T11:40:52.834Z,11.00
2018-03-27T11:43:21.157Z,10.90
2018-03-27T11:45:49.431Z,10.90
2018-03-27T11:48:16.919Z,10.90
2018-03-27T11:50:44.433Z,10.80
2018-03-27T11:53:12.027Z,10.80
2018-03-27T11:55:39.576Z,11.00
2018-03-27T11:58:08.090Z,11.20
2018-03-27T12:00:35.599Z,11.20
2018-03-27T12:03:03.166Z,11.40
2018-03-27T12:05:31.458Z,12.00
2018-03-27T12:07:59.000Z,11.90
2018-03-27T12:10:27.270Z,12.30
2018-03-27T12:12:54.787Z,12.30
2018-03-27T12:15:22.295Z,12.30
2018-03-27T12:17:50.575Z,11.90
2018-03-27T12:20:18.867Z,11.80
2018-03-27T12:22:46.366Z,11.80
2018-03-27T12:25:13.869Z,11.80
2018-03-27T12:27:42.349Z,11.70
2018-03-27T12:30:10.819Z,11.60
2018-03-27T12:32:39.098Z,11.50
2018-03-27T12:35:07.386Z,11.40
2018-03-27T12:37:35.670Z,11.30
2018-03-27T12:40:03.180Z,11.30
2018-03-27T12:42:30.695Z,11.30
2018-03-27T12:44:58.187Z,11.30
2018-03-27T12:47:25.690Z,11.30
2018-03-27T12:49:54.070Z,11.20
2018-03-27T12:52:22.358Z,11.10
2018-03-27T12:54:49.896Z,11.10
2018-03-27T12:57:17.487Z,11.00
2018-03-27T12:59:45.755Z,10.90
2018-03-27T13:02:13.306Z,10.90
2018-03-27T13:04:41.564Z,10.80
2018-03-27T13:07:09.069Z,10.80
2018-03-27T13:09:36.587Z,10.80
2018-03-27T13:12:04.907Z,10.80
2018-03-27T13:14:32.460Z,10.80
2018-03-27T13:16:59.914Z,10.80
2018-03-27T13:19:27.417Z,10.80
2018-03-27T13:21:54.937Z,10.80
2018-03-27T13:24:22.575Z,10.90
2018-03-27T13:26:50.084Z,10.80
2018-03-27T13:29:17.566Z,10.80
2018-03-27T13:31:45.173Z,10.80
2018-03-27T13:34:12.704Z,10.70
2018-03-27T13:36:40.989Z,10.60
2018-03-27T13:39:08.486Z,10.60
2018-03-27T13:41:36.031Z,10.60
2018-03-27T13:44:06.825Z,10.60
2018-03-27T13:46:35.102Z,10.60
2018-03-27T13:49:03.393Z,10.70
2018-03-27T13:51:30.978Z,10.60
2018-03-27T13:53:58.519Z,10.70
2018-03-27T13:56:26.016Z,10.80
2018-03-27T13:58:53.540Z,10.90
2018-03-27T14:01:21.021Z,10.90
2018-03-27T14:03:48.529Z,11.00
2018-03-27T14:06:17.116Z,10.90
2018-03-27T14:08:45.383Z,10.90
2018-03-27T14:11:13.668Z,10.80
2018-03-27T14:13:42.254Z,10.80
2018-03-27T14:16:10.531Z,10.80
2018-03-27T14:18:39.217Z,10.60
2018-03-27T14:21:07.590Z,10.60
2018-03-27T14:23:36.321Z,10.50
2018-03-27T14:26:04.655Z,10.50
2018-03-27T14:28:32.923Z,10.40
2018-03-27T14:31:01.302Z,10.30
2018-03-27T14:33:29.624Z,10.30
2018-03-27T14:35:57.091Z,10.20
2018-03-27T14:38:24.691Z,10.20
2018-03-27T14:40:52.230Z,10.10
2018-03-27T14:43:19.832Z,10.10
2018-03-27T14:45:48.114Z,10.10
2018-03-27T14:48:15.610Z,10.10
2018-03-27T14:50:43.835Z,10.00
2018-03-27T14:53:12.101Z,10.00
2018-03-27T14:55:40.370Z,9.90
2018-03-27T14:58:07.914Z,9.90
2018-03-27T15:00:35.450Z,9.80
2018-03-27T15:03:02.922Z,9.80
2018-03-27T15:05:30.453Z,9.80
2018-03-27T15:07:57.970Z,9.70
2018-03-27T15:10:26.215Z,9.60
2018-03-27T15:12:53.806Z,9.60
2018-03-27T15:15:21.378Z,9.50
2018-03-27T15:17:49.698Z,9.50
2018-03-27T15:20:17.296Z,9.50
2018-03-27T15:22:44.778Z,9.50
2018-03-27T15:25:13.042Z,9.30
2018-03-27T15:27:41.418Z,9.30
2018-03-27T15:30:09.735Z,9.20
2018-03-27T15:32:37.254Z,9.20
2018-03-27T15:35:05.542Z,9.10
2018-03-27T15:37:33.802Z,9.00
2018-03-27T15:40:01.303Z,9.00
2018-03-27T15:42:28.870Z,9.00
2018-03-27T15:44:56.485Z,9.00
2018-03-27T15:47:24.764Z,8.90
2018-03-27T15:49:53.145Z,8.80
2018-03-27T15:52:21.435Z,8.70
2018-03-27T15:54:49.690Z,8.70
2018-03-27T15:57:17.986Z,8.60
2018-03-27T15:59:45.478Z,8.60
2018-03-27T16:02:12.981Z,8.60
2018-03-27T16:04:41.272Z,8.50
2018-03-27T16:07:09.647Z,8.40
2018-03-27T16:09:37.189Z,8.40
2018-03-27T16:12:04.823Z,8.40
2018-03-27T16:14:32.411Z,8.40
2018-03-27T16:17:00.070Z,8.50
2018-03-27T16:19:27.648Z,8.50
2018-03-27T16:21:55.921Z,8.40
2018-03-27T16:24:23.482Z,8.40
2018-03-27T16:26:51.762Z,8.30
2018-03-27T16:29:20.066Z,8.20
2018-03-27T16:31:47.744Z,8.20
2018-03-27T16:34:15.395Z,8.20
2018-03-27T16:36:42.827Z,8.10
2018-03-27T16:39:10.383Z,8.10
2018-03-27T16:41:37.934Z,8.10
2018-03-27T16:44:06.192Z,8.00
2018-03-27T16:46:33.696Z,8.00
2018-03-27T16:49:01.537Z,7.90
2018-03-27T16:51:29.784Z,7.90
2018-03-27T16:53:57.280Z,7.90
2018-03-27T16:56:24.758Z,7.90
2018-03-27T16:58:52.253Z,7.90
2018-03-27T17:01:19.750Z,7.80
2018-03-27T17:03:47.367Z,7.80
2018-03-27T17:06:15.549Z,7.80
2018-03-27T17:08:43.122Z,7.80
2018-03-27T17:11:11.502Z,7.70
2018-03-27T17:13:39.071Z,7.60
2018-03-27T17:16:07.505Z,7.50
2018-03-27T17:18:34.962Z,7.50
2018-03-27T17:21:02.558Z,7.40
2018-03-27T17:23:30.846Z,7.40
2018-03-27T17:25:59.115Z,7.40
2018-03-27T17:28:27.407Z,7.40
2018-03-27T17:30:55.054Z,7.40
2018-03-27T17:33:23.311Z,7.40
2018-03-27T17:35:50.794Z,7.30
2018-03-27T17:38:18.446Z,7.30
2018-03-27T17:40:46.720Z,7.30
2018-03-27T17:43:15.001Z,7.20
2018-03-27T17:45:43.275Z,7.10
2018-03-27T17:48:11.589Z,7.10
2018-03-27T17:50:40.050Z,7.10
2018-03-27T17:53:08.308Z,7.10
2018-03-27T17:55:36.587Z,7.10
2018-03-27T17:58:04.956Z,7.10
2018-03-27T18:00:33.248Z,7.00
2018-03-27T18:03:02.228Z,7.00
2018-03-27T18:05:30.511Z,7.00
2018-03-27T18:07:59.094Z,6.90
2018-03-27T18:10:27.500Z,6.90
2018-03-27T18:12:55.022Z,6.90
2018-03-27T18:15:23.602Z,6.90
2018-03-27T18:17:51.891Z,6.90
2018-03-27T18:20:20.147Z,7.00
2018-03-27T18:22:47.681Z,6.90
2018-03-27T18:25:15.171Z,6.90
2018-03-27T18:27:42.777Z,6.90
2018-03-27T18:30:10.314Z,6.90
2018-03-27T18:32:39.494Z,6.90
2018-03-27T18:35:07.743Z,6.90
2018-03-27T18:37:36.153Z,6.90
2018-03-27T18:40:04.515Z,6.90
2018-03-27T18:42:32.088Z,6.90
2018-03-27T18:45:01.601Z,6.80
2018-03-27T18:47:29.290Z,6.80
2018-03-27T18:49:57.277Z,6.80
2018-03-27T18:52:25.010Z,6.80
2018-03-27T18:54:54.457Z,6.90
2018-03-27T18:57:22.889Z,6.80
2018-03-27T18:59:50.667Z,6.80
2018-03-27T19:02:18.178Z,6.80
2018-03-27T19:04:46.474Z,6.70
2018-03-27T19:07:14.735Z,6.80
2018-03-27T19:09:43.131Z,6.80
2018-03-27T19:12:11.398Z,6.80
2018-03-27T19:14:39.689Z,6.70
2018-03-27T19:17:08.060Z,6.80
2018-03-27T19:19:36.346Z,6.70
2018-03-27T19:22:03.846Z,6.70
2018-03-27T19:24:31.375Z,6.70
2018-03-27T19:26:58.999Z,6.70
2018-03-27T19:29:27.302Z,6.80
2018-03-27T19:31:54.804Z,6.80
2018-03-27T19:34:22.364Z,6.80
2018-03-27T19:36:49.905Z,6.80
2018-03-27T19:39:17.424Z,6.80
2018-03-27T19:41:45.689Z,6.90
2018-03-27T19:44:14.066Z,6.80
2018-03-27T19:46:42.396Z,6.80
2018-03-27T19:49:10.006Z,6.80
2018-03-27T19:51:38.268Z,6.70
2018-03-27T19:54:05.842Z,6.70
2018-03-27T19:56:34.265Z,6.80
2018-03-27T19:59:01.851Z,6.80
2018-03-27T20:01:29.334Z,6.80
2018-03-27T20:03:57.742Z,6.70
2018-03-27T20:06:25.245Z,6.70
2018-03-27T20:08:52.739Z,6.70
2018-03-27T20:11:20.330Z,6.70
2018-03-27T20:13:47.970Z,6.70
2018-03-27T20:16:15.449Z,6.70
2018-03-27T20:18:42.973Z,6.70
2018-03-27T20:21:11.221Z,6.70
2018-03-27T20:23:38.715Z,6.70
2018-03-27T20:26:07.311Z,6.60
2018-03-27T20:28:34.843Z,6.60
2018-03-27T20:31:03.149Z,6.70
2018-03-27T20:33:31.089Z,6.70
2018-03-27T20:35:59.403Z,6.70
2018-03-27T20:38:27.026Z,6.60
2018-03-27T20:40:55.317Z,6.60
2018-03-27T20:43:23.986Z,6.60
2018-03-27T20:45:52.256Z,6.60
2018-03-27T20:48:19.785Z,6.60
2018-03-27T20:50:47.270Z,6.60
2018-03-27T20:53:14.750Z,6.60
2018-03-27T20:55:43.034Z,6.60
2018-03-27T20:58:10.535Z,6.60
2018-03-27T21:00:38.383Z,6.60
2018-03-27T21:03:05.902Z,6.60
2018-03-27T21:05:34.163Z,6.60
2018-03-27T21:08:01.735Z,6.50
2018-03-27T21:10:30.063Z,6.60
2018-03-27T21:12:57.582Z,6.60
2018-03-27T21:15:25.143Z,6.60
2018-03-27T21:17:53.827Z,6.60
2018-03-27T21:20:22.087Z,6.60
2018-03-27T21:22:52.566Z,6.60
2018-03-27T21:25:20.912Z,6.60
2018-03-27T21:27:48.474Z,6.60
2018-03-27T21:30:15.966Z,6.60
2018-03-27T21:32:43.582Z,6.60
2018-03-27T21:35:12.611Z,6.60
2018-03-27T21:37:40.649Z,6.60
2018-03-27T21:40:08.221Z,6.60
2018-03-27T21:42:35.709Z,6.60
2018-03-27T21:45:04.005Z,6.60
2018-03-27T21:47:31.694Z,6.60
2018-03-27T21:49:59.981Z,6.60
2018-03-27T21:52:28.234Z,6.60
2018-03-27T21:54:55.745Z,6.60
2018-03-27T21:57:23.217Z,6.60
2018-03-27T21:59:50.784Z,6.60
2018-03-27T22:02:18.376Z,6.60
2018-03-27T22:04:45.863Z,6.60
2018-03-27T22:07:13.396Z,6.60
2018-03-27T22:09:41.842Z,6.60
2018-03-27T22:12:09.438Z,6.60
2018-03-27T22:14:37.708Z,6.60
2018-03-27T22:17:05.993Z,6.70
2018-03-27T22:19:34.251Z,6.70
2018-03-27T22:22:01.856Z,6.70
2018-03-27T22:24:31.083Z,6.60
2018-03-27T22:26:58.594Z,6.70
2018-03-27T22:29:26.958Z,6.70
2018-03-27T22:31:55.342Z,6.70
2018-03-27T22:34:23.621Z,6.70
2018-03-27T22:36:51.900Z,6.70
2018-03-27T22:39:20.185Z,6.70
2018-03-27T22:41:48.516Z,6.70
2018-03-27T22:44:16.026Z,6.70
2018-03-27T22:46:43.524Z,6.70
2018-03-27T22:49:11.954Z,6.70
2018-03-27T22:51:40.216Z,6.70
2018-03-27T22:54:08.485Z,6.70
2018-03-27T22:56:35.987Z,6.70
2018-03-27T22:59:03.515Z,6.70
2018-03-27T23:01:31.858Z,6.80
2018-03-27T23:03:59.350Z,6.80
2018-03-27T23:06:27.740Z,6.80
2018-03-27T23:08:56.111Z,6.80
2018-03-27T23:11:24.425Z,6.70
2018-03-27T23:13:51.890Z,6.70
2018-03-27T23:16:19.432Z,6.70
2018-03-27T23:18:46.925Z,6.70
2018-03-27T23:21:14.424Z,6.80
2018-03-27T23:23:42.725Z,6.90
2018-03-27T23:26:10.272Z,6.90
2018-03-27T23:28:38.676Z,6.90
2018-03-27T23:31:06.290Z,6.90
2018-03-27T23:33:34.580Z,6.90
2018-03-27T23:36:02.841Z,6.90
2018-03-27T23:38:31.156Z,7.00
2018-03-27T23:40:58.710Z,7.00
2018-03-27T23:43:26.274Z,7.00
2018-03-27T23:45:53.778Z,7.00
2018-03-27T23:48:22.272Z,7.00
2018-03-27T23:50:49.815Z,7.00
2018-03-27T23:53:17.322Z,7.00
2018-03-27T23:55:44.867Z,7.10
2018-03-27T23:58:12.362Z,7.10
